Time;durP1;ratioP1;P1;durP2;ratioP2;P2;SDS_P1;SDS_P2;PMS_P1;PMS_P2;Temp;Humidity;BMP_temperature;BMP_pressure;BME280_temperature;BME280_humidity;BME280_pressure;Samples;Min_cycle;Max_cycle;Signal;HPM_P1;HPM_P2
2021/01/30 00:00:16;;;;;;;2.25;1.00;;;8.00;86.90;;;;;;5049712;28;20024;-72
2021/01/30 00:02:44;;;;;;;2.00;0.73;;;8.00;86.90;;;;;;5051681;28;20442;-71
2021/01/30 00:05:13;;;;;;;2.47;0.90;;;8.00;86.90;;;;;;5068577;28;20046;-72
2021/01/30 00:07:41;;;;;;;1.15;0.80;;;8.00;86.60;;;;;;5068750;28;20033;-71
2021/01/30 00:10:08;;;;;;;1.98;0.90;;;7.90;86.60;;;;;;5066629;28;20020;-71
2021/01/30 00:12:34;;;;;;;0.80;0.80;;;7.90;86.60;;;;;;5067899;28;20035;-72
2021/01/30 00:15:00;;;;;;;4.97;1.33;;;8.00;86.20;;;;;;5067623;28;20021;-72
2021/01/30 00:17:28;;;;;;;2.72;0.98;;;7.90;86.00;;;;;;5069814;28;20383;-72
2021/01/30 00:19:56;;;;;;;1.42;0.65;;;7.90;86.00;;;;;;5068686;28;20103;-70
2021/01/30 00:22:25;;;;;;;1.23;0.70;;;7.80;86.20;;;;;;5068515;28;20096;-70
2021/01/30 00:24:51;;;;;;;3.05;0.90;;;7.80;86.30;;;;;;5068143;28;20035;-71
2021/01/30 00:27:22;;;;;;;2.58;0.88;;;7.80;86.00;;;;;;5051171;28;20104;-70
2021/01/30 00:29:49;;;;;;;0.70;0.70;;;7.80;85.80;;;;;;5069388;28;20078;-71
2021/01/30 00:32:18;;;;;;;3.63;0.77;;;7.80;85.80;;;;;;5068724;28;20630;-73
2021/01/30 00:34:47;;;;;;;2.22;0.70;;;7.80;85.80;;;;;;5042003;28;20043;-71
2021/01/30 00:37:15;;;;;;;3.60;0.70;;;7.70;85.80;;;;;;5067091;28;20036;-72
2021/01/30 00:39:41;;;;;;;2.63;0.80;;;7.70;85.80;;;;;;5056925;28;20033;-72
2021/01/30 00:42:09;;;;;;;4.05;0.85;;;7.70;85.60;;;;;;5072481;28;20020;-72
2021/01/30 00:44:37;;;;;;;2.67;0.88;;;7.70;85.50;;;;;;5071383;28;20017;-72
2021/01/30 00:47:04;;;;;;;2.45;0.98;;;7.70;85.60;;;;;;5073639;28;20024;-72
2021/01/30 00:49:39;;;;;;;1.83;0.68;;;7.70;85.60;;;;;;5069555;28;20599;-73
2021/01/30 00:52:05;;;;;;;4.13;0.80;;;7.70;85.60;;;;;;5073123;28;20031;-72
2021/01/30 00:54:33;;;;;;;2.65;0.90;;;7.70;85.60;;;;;;5071071;28;20476;-72
2021/01/30 00:56:59;;;;;;;4.00;0.90;;;7.70;85.60;;;;;;5052344;28;20036;-72
2021/01/30 00:59:25;;;;;;;4.15;1.15;;;7.60;85.50;;;;;;5071610;28;20037;-72
2021/01/30 01:01:51;;;;;;;1.33;0.80;;;7.60;85.50;;;;;;5072909;28;20024;-72
2021/01/30 01:04:18;;;;;;;2.50;0.80;;;7.60;85.60;;;;;;5071062;28;20021;-71
2021/01/30 01:06:44;;;;;;;3.90;1.00;;;7.60;85.80;;;;;;5073077;28;20099;-71
2021/01/30 01:09:11;;;;;;;3.40;1.08;;;7.60;85.80;;;;;;5068955;28;20131;-72
2021/01/30 01:11:38;;;;;;;2.00;0.93;;;7.60;85.70;;;;;;5065978;28;20054;-71
2021/01/30 01:14:06;;;;;;;1.65;1.02;;;7.60;85.60;;;;;;5055765;28;20025;-72
2021/01/30 01:16:35;;;;;;;4.90;1.35;;;7.60;85.80;;;;;;5058546;28;20040;-73
2021/01/30 01:19:04;;;;;;;3.30;1.20;;;7.50;86.00;;;;;;5054669;28;20029;-72
2021/01/30 01:21:30;;;;;;;4.32;1.42;;;7.50;85.90;;;;;;5070319;28;20444;-71
2021/01/30 01:23:58;;;;;;;4.45;1.17;;;7.50;86.20;;;;;;5070579;28;20141;-71
2021/01/30 01:26:27;;;;;;;5.50;1.40;;;7.50;86.50;;;;;;5073295;28;20017;-72
2021/01/30 01:28:56;;;;;;;5.00;1.42;;;7.40;86.30;;;;;;5069895;28;20431;-71
2021/01/30 01:31:24;;;;;;;3.65;1.25;;;7.40;86.40;;;;;;5072688;28;20064;-72
2021/01/30 01:33:49;;;;;;;6.55;1.35;;;7.40;86.60;;;;;;5066633;28;20024;-72
2021/01/30 01:36:20;;;;;;;2.50;1.00;;;7.30;86.80;;;;;;5072746;28;20425;-72
2021/01/30 01:38:53;;;;;;;1.88;1.17;;;7.30;86.80;;;;;;5071289;28;20032;-72
2021/01/30 01:41:19;;;;;;;2.55;1.00;;;7.30;86.80;;;;;;5072236;28;20545;-72
2021/01/30 01:43:45;;;;;;;5.85;1.75;;;7.30;86.90;;;;;;5072310;28;20025;-72
2021/01/30 01:46:10;;;;;;;3.67;1.13;;;7.30;87.10;;;;;;5071569;28;20024;-70
2021/01/30 01:49:04;;;;;;;3.38;1.10;;;7.30;87.10;;;;;;5069934;28;20081;-71
2021/01/30 01:51:38;;;;;;;5.25;1.08;;;7.30;87.10;;;;;;5052283;28;20043;-71
2021/01/30 01:54:12;;;;;;;2.65;1.10;;;7.30;87.10;;;;;;5070776;28;20024;-71
2021/01/30 01:56:52;;;;;;;5.30;1.00;;;7.30;86.90;;;;;;5072360;28;20048;-71
2021/01/30 01:59:18;;;;;;;3.03;0.70;;;7.30;86.70;;;;;;5071389;28;20032;-71
2021/01/30 02:01:52;;;;;;;2.45;0.90;;;7.30;86.70;;;;;;5052323;28;20429;-72
2021/01/30 02:04:27;;;;;;;4.60;0.93;;;7.30;86.50;;;;;;5061155;28;20153;-72
2021/01/30 02:06:57;;;;;;;4.20;0.90;;;7.20;86.40;;;;;;5057289;28;20040;-73
2021/01/30 02:09:24;;;;;;;3.65;1.08;;;7.20;86.40;;;;;;5055972;28;20029;-72
2021/01/30 02:12:04;;;;;;;1.85;0.93;;;7.20;86.40;;;;;;5071419;28;20492;-71
2021/01/30 02:14:34;;;;;;;2.90;1.00;;;7.20;86.60;;;;;;5070265;28;20102;-72
2021/01/30 02:17:39;;;;;;;4.82;1.02;;;7.20;86.50;;;;;;5071712;28;20050;-72
2021/01/30 02:20:42;;;;;;;4.93;1.20;;;7.20;86.70;;;;;;5071812;28;20496;-71
2021/01/30 02:23:37;;;;;;;;;;;7.20;86.60;;;;;;5070239;28;20038;-72
2021/01/30 02:26:31;;;;;;;2.38;1.08;;;7.20;86.40;;;;;;5068055;28;19916;-71
2021/01/30 02:28:59;;;;;;;4.15;1.00;;;7.20;86.60;;;;;;5070756;28;20028;-72
2021/01/30 02:31:52;;;;;;;5.22;1.33;;;7.20;86.90;;;;;;5064242;28;20115;-71
2021/01/30 02:34:42;;;;;;;4.47;1.10;;;7.20;87.10;;;;;;5052248;28;20115;-72
2021/01/30 02:37:31;;;;;;;3.78;1.55;;;7.10;87.10;;;;;;5058293;28;20052;-72
2021/01/30 02:40:06;;;;;;;2.35;1.23;;;7.20;87.20;;;;;;5071488;28;20623;-73
2021/01/30 02:42:42;;;;;;;2.80;1.35;;;7.20;87.20;;;;;;5071498;28;20100;-72
2021/01/30 02:45:26;;;;;;;1.10;0.98;;;7.10;87.20;;;;;;5070814;28;20012;-71
2021/01/30 02:48:04;;;;;;;2.13;0.80;;;7.20;87.20;;;;;;5070018;28;20037;-71
2021/01/30 02:50:39;;;;;;;5.60;1.25;;;7.20;87.00;;;;;;5070845;28;20103;-72
2021/01/30 02:53:15;;;;;;;3.08;1.10;;;7.20;86.80;;;;;;5070764;28;20365;-71
2021/01/30 02:55:42;;;;;;;5.50;1.10;;;7.20;86.80;;;;;;5069483;28;20378;-72
2021/01/30 02:58:10;;;;;;;2.08;0.90;;;7.20;86.80;;;;;;5070315;28;20059;-71
2021/01/30 03:00:36;;;;;;;6.20;1.23;;;7.20;86.60;;;;;;5069387;28;20060;-72
2021/01/30 03:03:02;;;;;;;4.97;1.55;;;7.20;86.70;;;;;;5066327;28;20039;-71
2021/01/30 03:05:28;;;;;;;3.75;1.02;;;7.20;86.70;;;;;;5069147;28;20096;-71
2021/01/30 03:08:18;;;;;;;4.35;1.00;;;7.20;86.60;;;;;;5063616;28;20123;-71
2021/01/30 03:10:57;;;;;;;0.98;0.80;;;7.20;86.60;;;;;;5067993;28;20029;-71
2021/01/30 03:13:34;;;;;;;5.38;1.00;;;7.20;86.60;;;;;;5052307;28;20036;-71
2021/01/30 03:16:06;;;;;;;3.53;1.27;;;7.20;86.70;;;;;;5069041;28;20102;-71
2021/01/30 03:18:34;;;;;;;1.67;0.95;;;7.30;86.60;;;;;;5069823;28;20028;-71
2021/01/30 03:21:05;;;;;;;3.08;1.00;;;7.30;86.40;;;;;;5070162;28;20105;-71
2021/01/30 03:23:31;;;;;;;2.72;0.95;;;7.30;86.30;;;;;;5069795;28;20025;-72
2021/01/30 03:26:01;;;;;;;4.20;1.23;;;7.20;86.20;;;;;;5069130;28;20039;-71
2021/01/30 03:28:27;;;;;;;2.70;1.00;;;7.20;86.30;;;;;;5069992;28;20376;-70
2021/01/30 03:30:53;;;;;;;3.58;0.93;;;7.20;86.10;;;;;;5069876;28;20095;-71
2021/01/30 03:33:18;;;;;;;3.53;0.90;;;7.20;86.10;;;;;;5069746;28;20044;-72
2021/01/30 03:35:44;;;;;;;2.10;1.00;;;7.30;86.30;;;;;;5068653;28;20025;-70
2021/01/30 03:38:09;;;;;;;3.35;1.00;;;7.30;86.40;;;;;;5069682;28;20024;-70
2021/01/30 03:40:38;;;;;;;3.22;1.10;;;7.20;86.30;;;;;;5070462;28;20078;-71
2021/01/30 03:43:04;;;;;;;1.88;1.20;;;7.30;86.20;;;;;;5069289;28;20012;-70
2021/01/30 03:45:31;;;;;;;2.47;1.20;;;7.30;86.40;;;;;;5068511;28;20032;-70
2021/01/30 03:47:57;;;;;;;3.10;1.00;;;7.30;86.30;;;;;;5052421;28;20028;-70
2021/01/30 03:50:22;;;;;;;4.45;1.30;;;7.30;86.10;;;;;;5068177;28;20115;-70
2021/01/30 03:52:48;;;;;;;2.67;1.00;;;7.30;86.20;;;;;;5066224;28;20032;-70
2021/01/30 03:55:15;;;;;;;3.65;0.95;;;7.30;86.30;;;;;;5051437;28;20028;-71
2021/01/30 03:57:41;;;;;;;3.13;1.00;;;7.20;86.50;;;;;;5069832;28;20044;-71
2021/01/30 04:00:10;;;;;;;1.23;1.10;;;7.20;86.60;;;;;;5069863;28;20017;-70
2021/01/30 04:02:35;;;;;;;1.88;1.10;;;7.30;86.60;;;;;;5068519;28;20116;-71
2021/01/30 04:05:01;;;;;;;2.22;1.10;;;7.30;86.50;;;;;;5051075;28;20674;-71
2021/01/30 04:09:54;;;;;;;2.47;1.30;;;7.20;86.30;;;;;;5035699;28;20056;-67
2021/01/30 04:12:20;;;;;;;3.70;1.35;;;7.30;86.50;;;;;;5021448;28;20021;-67
2021/01/30 04:14:45;;;;;;;5.03;1.17;;;7.20;86.40;;;;;;5030999;28;20031;-68
2021/01/30 04:17:11;;;;;;;5.10;1.00;;;7.20;86.50;;;;;;5035384;28;20028;-68
2021/01/30 04:19:37;;;;;;;4.15;1.10;;;7.20;86.40;;;;;;5033766;28;20342;-68
2021/01/30 04:22:04;;;;;;;2.33;0.80;;;7.20;86.40;;;;;;5035872;28;20018;-67
2021/01/30 04:24:30;;;;;;;1.77;0.98;;;7.20;86.50;;;;;;5033561;28;20021;-67
2021/01/30 04:26:56;;;;;;;1.50;0.85;;;7.20;86.40;;;;;;5016047;28;20033;-68
2021/01/30 04:29:21;;;;;;;1.95;0.90;;;7.20;86.30;;;;;;5044008;28;20025;-68
2021/01/30 04:31:52;;;;;;;3.33;1.02;;;7.20;86.20;;;;;;5016985;28;20129;-67
2021/01/30 04:34:17;;;;;;;0.60;0.60;;;7.20;86.30;;;;;;5015005;28;20054;-67
2021/01/30 04:36:43;;;;;;;3.95;1.25;;;7.20;86.30;;;;;;5016569;28;20067;-67
2021/01/30 04:39:08;;;;;;;4.57;0.82;;;7.20;86.20;;;;;;5041817;28;20526;-67
2021/01/30 04:41:48;;;;;;;2.00;0.60;;;7.20;86.30;;;;;;5048903;28;20755;-67
2021/01/30 04:44:33;;;;;;;2.28;0.63;;;7.20;86.20;;;;;;5033991;28;20044;-68
2021/01/30 04:47:12;;;;;;;4.78;1.02;;;7.20;86.30;;;;;;5033414;28;20052;-67
2021/01/30 04:50:00;;;;;;;1.45;0.93;;;7.20;86.30;;;;;;5017904;28;20036;-67
2021/01/30 04:52:35;;;;;;;2.38;0.98;;;7.20;86.20;;;;;;5035207;28;20030;-67
2021/01/30 04:55:21;;;;;;;3.85;0.70;;;7.10;86.80;;;;;;5033086;28;20041;-68
2021/01/30 04:58:20;;;;;;;2.95;1.30;;;7.10;86.50;;;;;;5024295;28;20036;-67
2021/01/30 05:01:09;;;;;;;1.00;0.65;;;7.00;86.40;;;;;;4999742;28;20040;-66
2021/01/30 05:03:50;;;;;;;2.72;0.90;;;7.00;86.70;;;;;;5019958;28;20056;-67
2021/01/30 05:06:21;;;;;;;1.55;0.80;;;6.90;87.10;;;;;;5027426;28;20642;-67
2021/01/30 05:09:01;;;;;;;1.40;0.75;;;6.90;87.10;;;;;;5034204;28;20042;-67
2021/01/30 05:11:28;;;;;;;1.70;0.90;;;6.90;87.20;;;;;;5045745;28;20457;-67
2021/01/30 05:14:02;;;;;;;0.73;0.70;;;6.90;87.30;;;;;;5027029;28;20116;-67
2021/01/30 05:16:34;;;;;;;0.98;0.60;;;6.90;87.50;;;;;;5016169;28;20080;-67
2021/01/30 05:19:04;;;;;;;2.30;0.70;;;6.90;87.40;;;;;;5032237;28;20041;-68
2021/01/30 05:21:45;;;;;;;2.53;0.82;;;6.80;87.40;;;;;;5016158;28;20031;-66
2021/01/30 05:24:12;;;;;;;2.28;0.88;;;6.80;87.50;;;;;;5014445;28;20052;-67
2021/01/30 05:26:51;;;;;;;3.15;0.93;;;6.90;87.60;;;;;;5035885;28;20030;-67
2021/01/30 05:29:35;;;;;;;1.52;0.70;;;6.90;87.80;;;;;;5033522;28;20037;-68
2021/01/30 05:32:09;;;;;;;3.10;0.80;;;6.80;87.70;;;;;;5025663;28;20052;-67
2021/01/30 05:34:44;;;;;;;2.70;0.80;;;6.80;87.70;;;;;;5014443;28;20083;-68
2021/01/30 05:37:22;;;;;;;1.85;0.70;;;6.80;87.80;;;;;;5014961;28;20370;-66
2021/01/30 05:39:50;;;;;;;2.10;0.90;;;6.80;87.90;;;;;;5028866;28;20432;-67
2021/01/30 05:42:34;;;;;;;1.75;0.80;;;6.80;88.00;;;;;;5044185;28;20441;-68
2021/01/30 05:45:20;;;;;;;1.67;0.90;;;6.70;88.10;;;;;;5030495;28;20452;-67
2021/01/30 05:47:50;;;;;;;4.75;0.90;;;6.70;88.40;;;;;;5032583;28;20025;-67
2021/01/30 05:50:26;;;;;;;2.60;1.02;;;6.60;88.50;;;;;;5015116;28;20036;-67
2021/01/30 05:52:55;;;;;;;0.95;0.90;;;6.60;88.70;;;;;;5023510;28;20030;-67
2021/01/30 05:55:35;;;;;;;4.82;1.10;;;6.50;88.80;;;;;;5031664;28;20470;-67
2021/01/30 05:58:21;;;;;;;2.97;1.02;;;6.50;89.10;;;;;;5032755;28;20088;-66
2021/01/30 06:00:47;;;;;;;6.70;1.30;;;6.50;89.10;;;;;;5015458;28;20041;-67
2021/01/30 06:03:21;;;;;;;6.68;1.50;;;6.50;89.10;;;;;;5033447;28;20124;-67
2021/01/30 06:05:53;;;;;;;9.48;1.30;;;6.50;89.20;;;;;;5014059;28;20026;-66
2021/01/30 06:08:21;;;;;;;4.00;1.40;;;6.60;89.30;;;;;;5014441;28;20029;-67
2021/01/30 06:10:51;;;;;;;2.13;1.10;;;6.60;89.20;;;;;;5031404;28;20024;-67
2021/01/30 06:13:22;;;;;;;4.93;1.20;;;6.60;89.10;;;;;;5027429;28;20033;-67
2021/01/30 06:15:54;;;;;;;4.43;1.40;;;6.60;89.20;;;;;;5031117;28;20173;-67
2021/01/30 06:18:37;;;;;;;4.15;1.30;;;6.60;89.10;;;;;;5032547;28;20033;-67
2021/01/30 06:21:18;;;;;;;1.40;0.90;;;6.60;89.10;;;;;;5032379;28;20026;-67
2021/01/30 06:24:04;;;;;;;9.30;2.20;;;6.60;89.00;;;;;;5028982;28;20087;-67
2021/01/30 06:26:31;;;;;;;5.25;1.17;;;6.60;89.10;;;;;;5031291;28;20496;-66
2021/01/30 06:29:05;;;;;;;3.78;1.02;;;6.70;88.80;;;;;;5033415;28;20524;-67
2021/01/30 06:31:41;;;;;;;5.32;1.23;;;6.70;88.80;;;;;;5015202;28;20029;-67
2021/01/30 06:34:30;;;;;;;6.32;1.10;;;6.70;88.70;;;;;;5010448;28;20033;-66
2021/01/30 06:36:57;;;;;;;7.32;1.23;;;6.70;88.80;;;;;;5001830;28;20030;-67
2021/01/30 06:39:35;;;;;;;14.02;1.10;;;6.70;88.60;;;;;;5027503;28;20397;-66
2021/01/30 06:42:29;;;;;;;8.63;1.35;;;6.70;88.60;;;;;;5035588;28;20032;-66
2021/01/30 06:45:07;;;;;;;11.40;1.40;;;6.70;88.30;;;;;;5025409;28;20486;-67
2021/01/30 06:47:46;;;;;;;9.50;1.73;;;6.80;88.30;;;;;;5031191;28;20060;-67
2021/01/30 06:50:37;;;;;;;8.82;2.15;;;6.80;88.20;;;;;;5017673;28;20029;-67
2021/01/30 06:53:20;;;;;;;7.28;1.88;;;6.80;88.00;;;;;;5031537;28;20402;-66
2021/01/30 06:55:46;;;;;;;14.02;2.13;;;6.80;87.90;;;;;;5027970;28;20478;-67
2021/01/30 06:58:36;;;;;;;11.25;2.13;;;6.80;87.60;;;;;;5032108;28;20155;-67
2021/01/30 07:01:23;;;;;;;11.32;2.13;;;6.90;87.80;;;;;;5018668;28;20045;-67
2021/01/30 07:04:06;;;;;;;9.63;1.85;;;6.80;87.70;;;;;;5029341;28;20029;-66
2021/01/30 07:06:56;;;;;;;10.00;1.90;;;6.80;87.70;;;;;;5022576;28;20083;-67
2021/01/30 07:09:59;;;;;;;7.57;1.58;;;6.90;87.70;;;;;;5040840;28;20060;-67
2021/01/30 07:12:36;;;;;;;12.05;2.47;;;6.90;87.50;;;;;;5011762;28;20030;-67
2021/01/30 07:15:17;;;;;;;15.57;2.53;;;6.90;87.60;;;;;;5031249;28;20030;-67
2021/01/30 07:18:02;;;;;;;9.35;1.92;;;6.90;87.50;;;;;;5014276;28;20036;-67
2021/01/30 07:20:46;;;;;;;10.52;2.00;;;6.90;87.60;;;;;;5032383;28;20025;-67
2021/01/30 07:23:21;;;;;;;9.52;2.00;;;7.00;87.60;;;;;;5030307;28;20025;-67
2021/01/30 07:25:49;;;;;;;14.45;2.13;;;7.00;87.50;;;;;;5029949;28;20097;-67
2021/01/30 07:28:39;;;;;;;9.70;1.95;;;7.00;87.40;;;;;;5031230;28;20052;-67
2021/01/30 07:31:14;;;;;;;14.32;1.58;;;7.00;87.50;;;;;;5016294;28;20025;-66
2021/01/30 07:33:52;;;;;;;7.63;1.40;;;7.10;87.50;;;;;;5032344;28;20048;-67
2021/01/30 07:36:29;;;;;;;14.32;2.30;;;7.10;87.50;;;;;;5005743;28;20022;-67
2021/01/30 07:39:05;;;;;;;11.45;2.08;;;7.10;87.30;;;;;;5041528;28;20024;-67
2021/01/30 07:41:30;;;;;;;7.25;1.73;;;7.10;87.20;;;;;;5037220;28;20025;-68
2021/01/30 07:44:13;;;;;;;10.68;1.85;;;7.10;87.00;;;;;;5027491;28;20540;-67
2021/01/30 07:46:45;;;;;;;12.88;1.52;;;7.10;87.00;;;;;;5030481;28;20539;-67
2021/01/30 07:49:20;;;;;;;8.50;2.20;;;7.10;87.00;;;;;;5030125;28;20037;-66
2021/01/30 07:51:45;;;;;;;10.85;2.35;;;7.10;87.00;;;;;;5028651;28;20029;-67
2021/01/30 07:54:13;;;;;;;14.70;2.53;;;7.00;87.40;;;;;;5035908;28;20422;-66
2021/01/30 07:57:27;;;;;;;13.82;2.28;;;7.00;86.90;;;;;;5026190;28;20037;-66
2021/01/30 07:59:53;;;;;;;7.22;2.08;;;7.10;87.00;;;;;;5002545;28;20120;-66
2021/01/30 08:02:47;;;;;;;11.68;3.40;;;7.10;87.10;;;;;;5030792;28;20064;-67
2021/01/30 08:05:16;;;;;;;17.15;3.55;;;7.10;87.10;;;;;;5035302;28;20021;-66
2021/01/30 08:07:48;;;;;;;13.02;4.05;;;7.10;87.00;;;;;;5030962;28;20022;-67
2021/01/30 08:10:22;;;;;;;12.35;3.30;;;7.10;86.90;;;;;;5028401;28;20447;-66
2021/01/30 08:13:22;;;;;;;16.35;2.65;;;7.20;86.70;;;;;;5031307;28;20040;-66
2021/01/30 08:16:15;;;;;;;12.05;2.40;;;7.20;86.70;;;;;;5030382;28;20038;-66
2021/01/30 08:18:46;;;;;;;12.05;2.53;;;7.20;86.90;;;;;;5032395;28;20033;-67
2021/01/30 08:21:50;;;;;;;17.42;2.42;;;7.20;86.60;;;;;;5029542;28;20036;-67
2021/01/30 08:24:35;;;;;;;12.32;2.40;;;7.20;86.50;;;;;;4978850;28;20030;-67
2021/01/30 08:27:03;;;;;;;10.25;2.53;;;7.20;86.40;;;;;;5029601;28;20500;-66
2021/01/30 08:29:37;;;;;;;12.57;2.40;;;7.20;86.30;;;;;;5031774;28;20044;-67
2021/01/30 08:32:24;;;;;;;11.23;1.98;;;7.20;86.30;;;;;;5030641;28;20030;-67
2021/01/30 08:34:52;;;;;;;7.32;1.70;;;7.20;86.40;;;;;;5030193;28;20030;-66
2021/01/30 08:37:18;;;;;;;6.85;1.70;;;7.20;86.40;;;;;;5031965;28;20025;-67
2021/01/30 08:40:01;;;;;;;11.65;2.40;;;7.20;86.50;;;;;;5038985;28;20477;-67
2021/01/30 08:42:33;;;;;;;10.32;1.88;;;7.20;86.60;;;;;;5047458;28;20031;-66
2021/01/30 08:45:06;;;;;;;6.75;1.67;;;7.20;86.60;;;;;;5037962;28;20071;-67
2021/01/30 08:48:03;;;;;;;12.45;1.90;;;7.20;86.60;;;;;;5032112;28;20032;-66
2021/01/30 08:50:40;;;;;;;9.95;2.00;;;7.30;86.50;;;;;;5032228;28;20084;-67
2021/01/30 08:53:22;;;;;;;10.50;2.13;;;7.30;86.40;;;;;;5030769;28;20055;-66
2021/01/30 08:55:52;;;;;;;;;;;7.30;86.40;;;;;;5029343;28;20033;-67
2021/01/30 08:58:35;;;;;;;10.05;1.90;;;7.30;86.40;;;;;;5029559;28;20024;-67
2021/01/30 09:01:02;;;;;;;;;;;7.30;86.10;;;;;;5030105;28;20021;-67
2021/01/30 09:03:47;;;;;;;10.52;2.05;;;7.30;86.20;;;;;;5037081;28;20361;-68
2021/01/30 09:06:40;;;;;;;9.07;1.90;;;7.30;85.90;;;;;;5031176;28;20030;-66
2021/01/30 09:09:16;;;;;;;11.77;2.05;;;7.30;86.00;;;;;;5038210;28;20026;-67
2021/01/30 09:12:03;;;;;;;9.05;2.40;;;7.30;86.00;;;;;;5023527;28;20068;-67
2021/01/30 09:14:29;;;;;;;14.10;2.05;;;7.30;85.80;;;;;;5027153;28;20630;-66
2021/01/30 09:16:57;;;;;;;9.07;1.90;;;7.30;85.70;;;;;;5035897;28;20104;-67
2021/01/30 09:19:54;;;;;;;14.65;2.15;;;7.30;85.50;;;;;;5036794;28;20030;-68
2021/01/30 09:22:31;;;;;;;8.18;1.95;;;7.30;85.40;;;;;;5011711;28;20025;-69
2021/01/30 09:25:06;;;;;;;11.45;1.88;;;7.40;85.50;;;;;;5031914;28;20040;-66
2021/01/30 09:27:34;;;;;;;9.70;2.05;;;7.40;85.30;;;;;;5018462;28;20448;-68
2021/01/30 09:30:29;;;;;;;14.68;2.63;;;7.40;85.20;;;;;;5016063;28;20036;-67
2021/01/30 09:32:54;;;;;;;10.20;2.30;;;7.40;85.20;;;;;;5038143;28;20033;-67
2021/01/30 09:35:27;;;;;;;10.52;2.00;;;7.50;85.00;;;;;;5017782;28;20044;-67
2021/01/30 09:37:53;;;;;;;14.43;2.25;;;7.40;84.90;;;;;;5026347;28;20152;-67
2021/01/30 09:40:30;;;;;;;10.23;2.03;;;7.50;85.00;;;;;;5025178;28;20454;-67
2021/01/30 09:43:01;;;;;;;13.77;2.60;;;7.50;84.80;;;;;;5033566;28;20037;-67
2021/01/30 09:45:29;;;;;;;8.43;2.03;;;7.50;84.80;;;;;;5008752;28;20029;-66
2021/01/30 09:47:56;;;;;;;9.77;2.05;;;7.50;84.90;;;;;;5016825;28;20085;-68
2021/01/30 09:50:32;;;;;;;10.13;1.88;;;7.50;84.80;;;;;;5034648;28;20033;-69
2021/01/30 09:53:02;;;;;;;12.82;2.38;;;7.60;84.90;;;;;;5031050;28;21070;-68
2021/01/30 09:55:28;;;;;;;13.02;1.90;;;7.60;84.90;;;;;;5032285;28;20038;-67
2021/01/30 09:58:06;;;;;;;5.60;1.58;;;7.70;84.80;;;;;;5017563;28;20405;-67
2021/01/30 10:00:40;;;;;;;11.10;2.53;;;7.70;84.80;;;;;;5034240;28;20504;-67
2021/01/30 10:03:28;;;;;;;6.88;1.67;;;7.70;84.70;;;;;;5031622;28;20388;-66
2021/01/30 10:05:54;;;;;;;12.07;2.28;;;7.80;84.50;;;;;;5002820;28;20118;-67
2021/01/30 10:08:30;;;;;;;13.70;3.20;;;7.80;84.60;;;;;;5023896;22;20123;-69
2021/01/30 10:11:02;;;;;;;12.88;3.63;;;7.80;84.60;;;;;;5047922;28;20017;-68
2021/01/30 10:13:28;;;;;;;5.68;1.70;;;7.80;84.60;;;;;;5031059;28;20056;-68
2021/01/30 10:15:55;;;;;;;6.07;2.10;;;7.80;84.50;;;;;;5031898;28;20033;-69
2021/01/30 10:18:23;;;;;;;12.07;2.15;;;7.80;84.50;;;;;;5048394;28;20028;-68
2021/01/30 10:20:53;;;;;;;12.00;2.00;;;7.90;84.60;;;;;;5050306;28;20496;-67
2021/01/30 10:23:40;;;;;;;8.75;1.90;;;7.90;84.60;;;;;;5033763;28;20040;-67
2021/01/30 10:26:15;;;;;;;8.43;2.80;;;8.00;84.30;;;;;;5052112;28;20021;-68
2021/01/30 10:29:03;;;;;;;13.48;4.18;;;8.00;84.10;;;;;;5033154;28;20024;-68
2021/01/30 10:31:38;;;;;;;10.55;1.75;;;8.00;84.10;;;;;;5050287;28;20041;-68
2021/01/30 10:34:25;;;;;;;10.27;2.25;;;8.00;84.10;;;;;;5050487;28;20021;-68
2021/01/30 10:37:07;;;;;;;13.35;2.85;;;8.10;83.90;;;;;;5033303;28;20021;-67
2021/01/30 10:39:39;;;;;;;11.55;2.92;;;8.00;83.90;;;;;;5048949;28;20086;-68
2021/01/30 10:42:16;;;;;;;12.68;4.70;;;8.00;84.00;;;;;;5051131;28;20476;-68
2021/01/30 10:44:45;;;;;;;13.73;3.33;;;8.00;83.80;;;;;;5050390;28;20033;-68
2021/01/30 10:47:13;;;;;;;7.70;3.13;;;8.10;83.80;;;;;;5051606;28;20109;-67
2021/01/30 10:49:39;;;;;;;9.82;3.00;;;8.10;83.80;;;;;;5051461;28;20032;-67
2021/01/30 10:52:22;;;;;;;11.38;2.70;;;8.10;83.70;;;;;;5048198;28;20036;-67
2021/01/30 10:54:48;;;;;;;9.10;2.30;;;8.20;83.70;;;;;;5033471;28;20401;-68
2021/01/30 10:57:17;;;;;;;12.63;3.03;;;8.20;83.50;;;;;;5048805;28;20098;-67
2021/01/30 11:00:20;;;;;;;11.07;2.38;;;8.30;83.60;;;;;;5030809;28;20028;-67
2021/01/30 11:02:46;;;;;;;7.60;3.17;;;8.30;83.60;;;;;;5039201;28;20049;-67
2021/01/30 11:05:27;;;;;;;11.30;2.08;;;8.30;83.30;;;;;;5036795;28;20056;-68
2021/01/30 11:08:01;;;;;;;9.60;2.03;;;8.30;83.20;;;;;;5046072;28;20444;-67
2021/01/30 11:10:47;;;;;;;8.95;2.78;;;8.40;83.10;;;;;;5026501;28;20021;-68
2021/01/30 11:13:19;;;;;;;10.82;3.28;;;8.40;82.90;;;;;;5050497;28;20040;-69
2021/01/30 11:15:45;;;;;;;12.65;2.85;;;8.40;83.10;;;;;;5050062;28;20500;-67
2021/01/30 11:18:32;;;;;;;17.27;2.80;;;8.40;83.00;;;;;;5050968;28;20060;-67
2021/01/30 11:20:59;;;;;;;11.82;2.63;;;8.50;82.80;;;;;;5050692;28;20096;-67
2021/01/30 11:23:41;;;;;;;12.88;2.45;;;8.50;82.80;;;;;;5039089;28;20030;-67
2021/01/30 11:26:33;;;;;;;13.05;2.55;;;8.50;82.80;;;;;;5030674;28;20468;-68
2021/01/30 11:29:01;;;;;;;13.55;2.40;;;8.50;82.60;;;;;;5013774;28;20030;-67
2021/01/30 11:31:27;;;;;;;13.48;3.10;;;8.60;82.80;;;;;;5048013;28;20047;-68
2021/01/30 11:33:54;;;;;;;18.85;5.63;;;8.60;82.90;;;;;;5049948;28;20033;-68
2021/01/30 11:36:20;;;;;;;9.25;2.30;;;8.60;83.00;;;;;;5051150;28;20392;-68
2021/01/30 11:38:59;;;;;;;10.95;2.20;;;8.70;82.90;;;;;;5049885;28;20025;-68
2021/01/30 11:41:25;;;;;;;10.73;2.30;;;8.70;82.20;;;;;;5030658;28;20083;-68
2021/01/30 11:43:51;;;;;;;8.05;1.90;;;8.70;82.30;;;;;;5044821;28;20477;-68
2021/01/30 11:46:17;;;;;;;8.80;2.42;;;8.70;82.40;;;;;;5050858;28;20033;-68
2021/01/30 11:48:42;;;;;;;10.45;2.67;;;8.70;82.40;;;;;;5050411;28;20033;-68
2021/01/30 11:51:18;;;;;;;18.45;3.08;;;8.70;82.40;;;;;;5049849;28;20025;-68
2021/01/30 11:53:44;;;;;;;15.93;3.97;;;8.70;82.70;;;;;;5050399;28;20031;-68
2021/01/30 11:56:09;;;;;;;13.93;3.40;;;8.80;82.90;;;;;;5049349;28;20447;-68
2021/01/30 11:58:35;;;;;;;9.68;2.53;;;8.80;82.50;;;;;;5017444;28;20033;-68
2021/01/30 12:01:01;;;;;;;11.70;2.28;;;8.80;82.40;;;;;;5045931;28;20036;-68
2021/01/30 12:03:28;;;;;;;9.93;2.20;;;8.90;82.60;;;;;;5050405;28;20025;-67
2021/01/30 12:05:54;;;;;;;12.68;2.80;;;8.90;82.40;;;;;;5049128;28;20819;-68
2021/01/30 12:08:20;;;;;;;8.77;2.20;;;8.90;82.20;;;;;;5031312;28;20198;-67
2021/01/30 12:10:46;;;;;;;17.98;5.43;;;9.00;81.80;;;;;;5035685;28;20098;-67
2021/01/30 12:13:12;;;;;;;13.07;2.90;;;9.00;81.90;;;;;;5037130;28;20029;-68
2021/01/30 12:15:38;;;;;;;7.82;2.20;;;9.00;81.90;;;;;;5032490;28;20036;-68
2021/01/30 12:18:09;;;;;;;9.98;2.20;;;9.00;82.00;;;;;;5050221;28;20064;-68
2021/01/30 12:20:37;;;;;;;11.53;2.20;;;9.00;82.00;;;;;;5049916;28;20025;-68
2021/01/30 12:23:03;;;;;;;12.82;2.80;;;9.10;81.50;;;;;;5032129;28;20263;-68
2021/01/30 12:25:29;;;;;;;9.05;1.95;;;9.00;81.50;;;;;;5048976;28;20477;-68
2021/01/30 12:27:57;;;;;;;7.63;1.73;;;9.00;81.40;;;;;;5042154;28;20385;-68
2021/01/30 12:30:26;;;;;;;10.57;1.80;;;8.90;81.60;;;;;;5050344;28;20516;-67
2021/01/30 12:32:52;;;;;;;9.38;2.17;;;8.90;81.70;;;;;;5049693;28;20202;-68
2021/01/30 12:35:20;;;;;;;7.20;1.73;;;8.90;81.80;;;;;;5049666;28;20155;-67
2021/01/30 12:37:46;;;;;;;8.27;2.58;;;8.90;81.60;;;;;;5053927;28;20544;-68
2021/01/30 12:40:14;;;;;;;7.15;2.22;;;8.80;81.70;;;;;;5045329;28;20657;-68
2021/01/30 12:42:41;;;;;;;7.28;1.60;;;8.80;81.80;;;;;;5053153;28;20029;-68
2021/01/30 12:45:07;;;;;;;7.57;1.60;;;8.80;81.60;;;;;;5053180;28;20025;-68
2021/01/30 12:47:34;;;;;;;5.07;1.42;;;8.70;81.80;;;;;;5053345;28;20651;-68
2021/01/30 12:50:00;;;;;;;9.98;2.08;;;8.70;81.60;;;;;;5054074;28;20029;-67
2021/01/30 12:52:25;;;;;;;7.13;1.00;;;8.70;81.70;;;;;;5053388;28;20381;-67
2021/01/30 12:54:51;;;;;;;5.07;1.20;;;8.70;81.70;;;;;;5032932;28;20026;-68
2021/01/30 12:57:18;;;;;;;4.30;1.00;;;8.60;81.60;;;;;;5034001;28;20104;-67
2021/01/30 12:59:43;;;;;;;4.13;0.88;;;8.60;81.60;;;;;;5034017;28;20037;-68
2021/01/30 13:02:09;;;;;;;3.92;1.27;;;8.60;81.70;;;;;;5033644;28;20539;-68
2021/01/30 13:04:35;;;;;;;1.27;0.95;;;8.60;81.70;;;;;;5050038;28;20127;-68
2021/01/30 13:07:01;;;;;;;4.65;0.88;;;8.50;81.30;;;;;;5053653;28;20040;-68
2021/01/30 13:09:26;;;;;;;3.67;1.00;;;8.50;81.10;;;;;;5039617;28;20132;-68
2021/01/30 13:11:52;;;;;;;3.80;1.50;;;8.40;81.30;;;;;;5023976;28;20119;-68
2021/01/30 13:14:19;;;;;;;3.03;1.08;;;8.30;81.40;;;;;;5049846;28;20033;-68
2021/01/30 13:16:45;;;;;;;2.33;1.25;;;8.30;81.70;;;;;;5036352;28;20136;-68
2021/01/30 13:19:11;;;;;;;2.47;1.15;;;8.20;81.90;;;;;;5033185;28;20087;-67
2021/01/30 13:21:37;;;;;;;3.70;1.45;;;8.20;82.00;;;;;;5039267;28;20479;-67
2021/01/30 13:24:03;;;;;;;2.55;1.20;;;8.20;82.10;;;;;;5051363;28;20124;-67
2021/01/30 13:26:28;;;;;;;4.07;1.25;;;8.10;82.20;;;;;;5015309;28;20028;-67
2021/01/30 13:28:54;;;;;;;5.13;1.33;;;8.10;82.40;;;;;;5033191;28;20037;-68